createdAt,value
2017-09-21T00:01:51.299Z,25.70
2017-09-21T00:04:18.448Z,33.03
2017-09-21T00:06:45.377Z,28.87
2017-09-21T00:09:12.213Z,33.67
2017-09-21T00:11:39.070Z,29.37
2017-09-21T00:14:05.937Z,29.70
2017-09-21T00:16:33.077Z,32.40
2017-09-21T00:18:59.904Z,32.50
2017-09-21T00:21:26.761Z,32.43
2017-09-21T00:23:53.653Z,28.50
2017-09-21T00:26:20.505Z,31.33
2017-09-21T00:28:47.410Z,31.83
2017-09-21T00:31:14.548Z,32.37
2017-09-21T00:33:41.697Z,31.07
2017-09-21T00:36:08.849Z,28.63
2017-09-21T00:38:35.698Z,30.03
2017-09-21T00:41:02.561Z,32.43
2017-09-21T00:43:29.423Z,29.60
2017-09-21T00:45:56.281Z,34.40
2017-09-21T00:48:23.473Z,30.93
2017-09-21T00:50:50.373Z,28.20
2017-09-21T00:53:17.253Z,30.90
2017-09-21T00:55:44.409Z,32.20
2017-09-21T00:58:11.308Z,33.07
2017-09-21T01:00:38.406Z,35.60
2017-09-21T01:03:05.269Z,31.53
2017-09-21T01:05:32.214Z,28.97
2017-09-21T01:07:59.058Z,27.87
2017-09-21T01:10:25.917Z,33.00
2017-09-21T01:12:52.817Z,32.83
2017-09-21T01:15:19.681Z,28.73
2017-09-21T01:17:46.582Z,30.17
2017-09-21T01:20:13.758Z,30.97
2017-09-21T01:22:40.913Z,30.27
2017-09-21T01:25:07.998Z,30.57
2017-09-21T01:27:34.901Z,31.70
2017-09-21T01:30:01.798Z,34.03
2017-09-21T01:32:28.674Z,36.20
2017-09-21T01:34:55.841Z,34.53
2017-09-21T01:37:22.704Z,32.07
2017-09-21T01:39:49.570Z,30.70
2017-09-21T01:42:16.482Z,31.77
2017-09-21T01:44:43.400Z,35.00
2017-09-21T01:47:10.574Z,31.40
2017-09-21T01:49:37.439Z,29.83
2017-09-21T01:52:04.669Z,29.23
2017-09-21T01:54:31.534Z,32.73
2017-09-21T01:56:58.765Z,32.50
2017-09-21T01:59:25.913Z,29.53
2017-09-21T02:01:52.793Z,31.20
2017-09-21T02:04:19.666Z,34.30
2017-09-21T02:06:46.761Z,31.93
2017-09-21T02:09:13.650Z,31.87
2017-09-21T02:11:40.847Z,30.07
2017-09-21T02:14:07.760Z,33.60
2017-09-21T02:16:34.629Z,34.50
2017-09-21T02:19:01.781Z,31.77
2017-09-21T02:21:28.665Z,32.67
2017-09-21T02:23:55.550Z,31.20
2017-09-21T02:26:22.438Z,29.10
2017-09-21T02:28:49.305Z,32.27
2017-09-21T02:31:16.153Z,31.00
2017-09-21T02:33:43.014Z,40.30
2017-09-21T02:36:09.858Z,44.43
2017-09-21T02:38:36.729Z,34.57
2017-09-21T02:41:03.893Z,35.53
2017-09-21T02:43:30.777Z,30.90
2017-09-21T02:45:57.652Z,30.80
2017-09-21T02:48:24.502Z,34.43
2017-09-21T02:50:51.362Z,31.83
2017-09-21T02:53:18.210Z,30.30
2017-09-21T02:55:45.353Z,28.87
2017-09-21T02:58:12.193Z,31.00
2017-09-21T03:00:39.050Z,30.10
2017-09-21T03:03:05.941Z,31.87
2017-09-21T03:05:32.810Z,34.17
2017-09-21T03:07:59.669Z,33.20
2017-09-21T03:10:26.521Z,32.40
2017-09-21T03:12:53.386Z,35.23
2017-09-21T03:15:20.237Z,35.00
2017-09-21T03:17:47.117Z,38.20
2017-09-21T03:20:13.994Z,36.43
2017-09-21T03:22:40.881Z,39.70
2017-09-21T03:25:07.743Z,41.27
2017-09-21T03:27:34.569Z,36.60
2017-09-21T03:30:01.437Z,39.00
2017-09-21T03:32:28.305Z,39.40
2017-09-21T03:34:55.452Z,38.00
2017-09-21T03:37:22.318Z,35.00
2017-09-21T03:39:49.211Z,40.27
2017-09-21T03:42:16.069Z,36.23
2017-09-21T03:44:42.917Z,33.07
2017-09-21T03:47:09.770Z,35.67
2017-09-21T03:49:36.925Z,34.47
2017-09-21T03:52:03.796Z,34.27
2017-09-21T03:54:30.922Z,36.07
2017-09-21T03:56:57.761Z,36.60
2017-09-21T03:59:24.621Z,33.67
2017-09-21T04:01:51.861Z,33.80
2017-09-21T04:04:18.717Z,33.80
2017-09-21T04:06:45.549Z,30.30
2017-09-21T04:09:12.694Z,36.80
2017-09-21T04:11:40.499Z,37.20
2017-09-21T04:14:07.609Z,39.30
2017-09-21T04:16:34.537Z,38.90
2017-09-21T04:19:01.702Z,40.00
2017-09-21T04:21:28.557Z,34.10
2017-09-21T04:23:55.425Z,33.40
2017-09-21T04:26:22.546Z,32.70
2017-09-21T04:28:49.406Z,35.90
2017-09-21T04:31:16.301Z,34.43
2017-09-21T04:33:43.134Z,33.07
2017-09-21T04:36:10.217Z,37.07
2017-09-21T04:38:37.369Z,33.27
2017-09-21T04:41:04.521Z,34.90
2017-09-21T04:43:31.388Z,35.67
2017-09-21T04:45:58.245Z,34.40
2017-09-21T04:48:25.102Z,34.40
2017-09-21T04:50:51.953Z,33.63
2017-09-21T04:53:19.040Z,35.23
2017-09-21T04:55:45.899Z,32.57
2017-09-21T04:58:12.780Z,35.80
2017-09-21T05:00:39.642Z,37.43
2017-09-21T05:03:06.477Z,36.30
2017-09-21T05:05:33.349Z,33.47
2017-09-21T05:08:00.258Z,36.77
2017-09-21T05:10:27.142Z,35.17
2017-09-21T05:12:54.017Z,31.37
2017-09-21T05:15:21.250Z,30.53
2017-09-21T05:17:48.329Z,28.40
2017-09-21T05:20:15.181Z,31.57
2017-09-21T05:22:42.409Z,30.23
2017-09-21T05:25:09.547Z,34.47
2017-09-21T05:27:36.405Z,33.27
2017-09-21T05:30:03.266Z,31.23
2017-09-21T05:32:30.385Z,32.53
2017-09-21T05:34:57.250Z,33.40
2017-09-21T05:37:24.137Z,30.30
2017-09-21T05:39:50.997Z,31.47
2017-09-21T05:42:17.861Z,33.13
2017-09-21T05:44:44.766Z,30.13
2017-09-21T05:47:11.633Z,30.33
2017-09-21T05:49:38.485Z,29.10
2017-09-21T05:52:05.361Z,31.90
2017-09-21T05:54:32.480Z,31.60
2017-09-21T05:56:59.634Z,30.80
2017-09-21T05:59:26.778Z,29.27
2017-09-21T06:01:53.929Z,27.87
2017-09-21T06:04:21.082Z,30.67
2017-09-21T06:06:47.953Z,26.50
2017-09-21T06:09:15.034Z,26.07
2017-09-21T06:11:42.107Z,32.30
2017-09-21T06:14:09.001Z,23.67
2017-09-21T06:16:35.833Z,27.70
2017-09-21T06:19:02.673Z,25.00
2017-09-21T06:21:29.769Z,26.63
2017-09-21T06:23:56.610Z,30.17
2017-09-21T06:26:23.466Z,25.23
2017-09-21T06:28:50.385Z,29.13
2017-09-21T06:31:17.226Z,26.93
2017-09-21T06:33:44.075Z,29.23
2017-09-21T06:36:10.937Z,26.50
2017-09-21T06:38:37.785Z,24.33
2017-09-21T06:41:04.853Z,24.30
2017-09-21T06:43:32.313Z,23.93
2017-09-21T06:45:59.461Z,27.30
2017-09-21T06:48:26.312Z,26.57
2017-09-21T06:50:53.661Z,27.20
2017-09-21T06:53:20.773Z,25.43
2017-09-21T06:55:47.626Z,25.20
2017-09-21T06:58:14.481Z,22.87
2017-09-21T07:00:41.641Z,22.90
2017-09-21T07:03:08.487Z,24.33
2017-09-21T07:05:35.636Z,25.77
2017-09-21T07:08:02.477Z,23.67
2017-09-21T07:10:29.371Z,21.93
2017-09-21T07:12:56.265Z,23.80
2017-09-21T07:15:23.132Z,24.10
2017-09-21T07:17:50.001Z,26.30
2017-09-21T07:20:16.856Z,21.30
2017-09-21T07:22:43.687Z,22.10
2017-09-21T07:25:10.788Z,23.30
2017-09-21T07:27:37.671Z,24.83
2017-09-21T07:30:04.589Z,25.03
2017-09-21T07:32:31.733Z,24.07
2017-09-21T07:34:58.594Z,24.27
2017-09-21T07:37:25.451Z,24.20
2017-09-21T07:39:52.565Z,24.50
2017-09-21T07:42:19.717Z,24.90
2017-09-21T07:44:46.585Z,26.43
2017-09-21T07:47:13.710Z,25.00
2017-09-21T07:49:40.610Z,25.73
2017-09-21T07:52:07.701Z,24.60
2017-09-21T07:54:34.541Z,24.50
2017-09-21T07:57:01.976Z,25.30
2017-09-21T07:59:28.825Z,27.30
2017-09-21T08:01:55.697Z,27.87
2017-09-21T08:04:22.549Z,25.90
2017-09-21T08:06:49.689Z,26.40
2017-09-21T08:09:16.854Z,26.40
2017-09-21T08:11:43.738Z,26.53
2017-09-21T08:14:10.568Z,29.83
2017-09-21T08:16:37.673Z,27.23
2017-09-21T08:19:04.821Z,30.30
2017-09-21T08:21:31.696Z,28.63
2017-09-21T08:23:58.560Z,29.77
2017-09-21T08:26:25.414Z,31.83
2017-09-21T08:28:52.281Z,28.63
2017-09-21T08:31:19.114Z,26.07
2017-09-21T08:33:45.969Z,26.50
2017-09-21T08:36:13.134Z,32.00
2017-09-21T08:38:39.969Z,29.93
2017-09-21T08:41:06.850Z,28.60
2017-09-21T08:43:33.762Z,31.97
2017-09-21T08:46:00.609Z,31.30
2017-09-21T08:48:27.758Z,29.67
2017-09-21T08:50:55.162Z,30.00
2017-09-21T08:53:22.045Z,31.57
2017-09-21T08:55:48.888Z,31.80
2017-09-21T08:58:15.794Z,30.20
2017-09-21T09:00:42.907Z,30.00
2017-09-21T09:03:09.826Z,30.23
2017-09-21T09:05:36.681Z,30.30
2017-09-21T09:08:03.531Z,32.90
2017-09-21T09:10:30.385Z,33.33
2017-09-21T09:12:57.258Z,34.03
2017-09-21T09:15:24.361Z,30.67
2017-09-21T09:17:51.515Z,30.07
2017-09-21T09:20:18.348Z,30.20
2017-09-21T09:22:45.174Z,30.70
2017-09-21T09:25:12.046Z,30.20
2017-09-21T09:27:39.193Z,29.73
2017-09-21T09:30:06.078Z,30.53
2017-09-21T09:32:33.189Z,34.50
2017-09-21T09:35:00.051Z,31.70
2017-09-21T09:37:26.927Z,32.20
2017-09-21T09:39:54.129Z,33.40
2017-09-21T09:42:20.973Z,33.77
2017-09-21T09:44:47.870Z,35.73
2017-09-21T09:47:15.061Z,31.47
2017-09-21T09:49:41.953Z,31.80
2017-09-21T09:52:08.789Z,30.83
2017-09-21T09:54:35.667Z,32.37
2017-09-21T09:57:02.537Z,31.17
2017-09-21T09:59:29.398Z,33.07
2017-09-21T10:01:56.534Z,30.73
2017-09-21T10:04:23.377Z,31.10
2017-09-21T10:06:50.224Z,33.00
2017-09-21T10:09:17.171Z,28.57
2017-09-21T10:11:44.025Z,29.77
2017-09-21T10:14:11.153Z,30.73
2017-09-21T10:16:38.036Z,29.60
2017-09-21T10:19:04.904Z,30.90
2017-09-21T10:21:31.741Z,28.30
2017-09-21T10:23:58.845Z,30.10
2017-09-21T10:26:25.692Z,28.97
2017-09-21T10:28:52.565Z,27.00
2017-09-21T10:31:19.459Z,26.80
2017-09-21T10:33:46.334Z,25.43
2017-09-21T10:36:13.468Z,27.47
2017-09-21T10:38:40.621Z,27.60
2017-09-21T10:41:07.459Z,25.73
2017-09-21T10:43:34.321Z,26.43
2017-09-21T10:46:01.451Z,24.90
2017-09-21T10:48:28.318Z,24.30
2017-09-21T10:50:55.161Z,23.00
2017-09-21T10:53:22.018Z,24.53
2017-09-21T10:55:48.853Z,26.60
2017-09-21T10:58:15.974Z,26.30
2017-09-21T11:00:42.824Z,25.77
2017-09-21T11:03:09.694Z,26.57
2017-09-21T11:05:36.553Z,27.60
2017-09-21T11:08:03.450Z,24.33
2017-09-21T11:10:30.286Z,22.20
2017-09-21T11:12:57.149Z,22.37
2017-09-21T11:15:24.029Z,25.50
2017-09-21T11:17:51.133Z,24.30
2017-09-21T11:20:18.214Z,23.87
2017-09-21T11:22:45.323Z,24.37
2017-09-21T11:25:12.193Z,25.40
2017-09-21T11:27:39.314Z,25.70
2017-09-21T11:30:06.185Z,27.07
2017-09-21T11:32:33.041Z,25.27
2017-09-21T11:34:59.897Z,22.90
2017-09-21T11:37:26.775Z,25.27
2017-09-21T11:39:54.125Z,27.93
2017-09-21T11:42:21.085Z,24.20
2017-09-21T11:44:48.244Z,22.97
2017-09-21T11:47:15.101Z,22.60
2017-09-21T11:49:41.941Z,20.47
2017-09-21T11:52:08.822Z,22.47
2017-09-21T11:54:35.921Z,22.33
2017-09-21T11:57:02.781Z,24.97
2017-09-21T11:59:29.674Z,24.27
2017-09-21T12:01:56.831Z,22.90
2017-09-21T12:04:23.982Z,22.07
2017-09-21T12:06:50.975Z,21.70
2017-09-21T12:09:17.899Z,21.17
2017-09-21T12:11:44.761Z,22.60
2017-09-21T12:14:12.111Z,22.13
2017-09-21T12:16:39.325Z,22.30
2017-09-21T12:19:06.395Z,23.40
2017-09-21T12:21:33.524Z,21.90
2017-09-21T12:24:00.981Z,22.10
2017-09-21T12:26:28.137Z,19.63
2017-09-21T12:28:55.399Z,22.53
2017-09-21T12:31:22.434Z,30.40
2017-09-21T12:33:49.513Z,28.03
2017-09-21T12:36:17.169Z,23.10
2017-09-21T12:38:44.178Z,19.30
2017-09-21T12:41:11.165Z,19.73
2017-09-21T12:43:38.239Z,21.80
2017-09-21T12:46:05.538Z,21.70
2017-09-21T12:48:32.885Z,24.83
2017-09-21T12:51:00.760Z,24.27
2017-09-21T12:53:28.119Z,21.30
2017-09-21T12:55:55.282Z,23.10
2017-09-21T12:58:25.284Z,19.20
2017-09-21T13:00:52.857Z,18.97
2017-09-21T13:03:19.993Z,16.53
2017-09-21T13:05:47.143Z,17.27
2017-09-21T13:08:15.199Z,16.90
2017-09-21T13:10:42.846Z,17.50
2017-09-21T13:13:09.862Z,18.33
2017-09-21T13:15:37.008Z,19.77
2017-09-21T13:18:04.123Z,19.10
2017-09-21T13:20:31.081Z,19.33
2017-09-21T13:22:58.251Z,22.20
2017-09-21T13:25:25.081Z,21.47
2017-09-21T13:27:52.242Z,19.97
2017-09-21T13:30:19.149Z,19.70
2017-09-21T13:32:46.102Z,18.47
2017-09-21T13:35:13.090Z,16.27
2017-09-21T13:37:40.028Z,16.90
2017-09-21T13:40:07.177Z,17.90
2017-09-21T13:42:34.098Z,20.97
2017-09-21T13:45:01.269Z,21.37
2017-09-21T13:47:28.142Z,19.80
2017-09-21T13:49:55.038Z,21.10
2017-09-21T13:52:22.138Z,23.90
2017-09-21T13:54:49.261Z,25.57
2017-09-21T13:57:16.159Z,25.10
2017-09-21T13:59:43.249Z,24.47
2017-09-21T14:02:10.321Z,24.07
2017-09-21T14:04:37.221Z,24.87
2017-09-21T14:07:04.077Z,24.17
2017-09-21T14:09:31.237Z,24.10
2017-09-21T14:14:43.246Z,24.10
2017-09-21T14:17:10.074Z,24.10
2017-09-21T14:19:36.903Z,27.70
2017-09-21T14:22:03.795Z,28.20
2017-09-21T14:24:30.616Z,29.33
2017-09-21T14:26:57.457Z,29.00
2017-09-21T14:29:24.310Z,29.60
2017-09-21T14:31:51.162Z,25.30
2017-09-21T14:34:18.007Z,21.50
2017-09-21T14:36:44.870Z,21.60
2017-09-21T14:39:11.726Z,22.80
2017-09-21T14:41:38.573Z,22.17
2017-09-21T14:44:05.417Z,22.93
2017-09-21T14:46:32.251Z,21.63
2017-09-21T14:48:59.465Z,23.47
2017-09-21T14:51:26.367Z,24.07
2017-09-21T14:53:53.213Z,22.40
2017-09-21T14:56:20.044Z,22.53
2017-09-21T14:58:46.897Z,19.30
2017-09-21T15:01:13.756Z,19.73
2017-09-21T15:03:40.819Z,20.63
2017-09-21T15:06:07.689Z,19.50
2017-09-21T15:08:34.817Z,24.60
2017-09-21T15:11:01.659Z,18.80
2017-09-21T15:13:28.507Z,19.83
2017-09-21T15:15:55.344Z,18.10
2017-09-21T15:18:22.194Z,21.13
2017-09-21T15:20:49.080Z,17.43
2017-09-21T15:23:15.953Z,15.50
2017-09-21T15:25:42.779Z,17.80
2017-09-21T15:28:09.643Z,18.63
2017-09-21T15:30:36.472Z,16.83
2017-09-21T15:33:03.395Z,14.60
2017-09-21T15:35:30.274Z,17.70
2017-09-21T15:37:57.132Z,16.03
2017-09-21T15:40:24.298Z,15.60
2017-09-21T15:42:51.456Z,18.80
2017-09-21T15:45:18.281Z,17.67
2017-09-21T15:47:45.118Z,19.67
2017-09-21T15:50:11.997Z,20.70
2017-09-21T15:52:38.824Z,20.57
2017-09-21T15:55:05.688Z,22.40
2017-09-21T15:57:32.560Z,23.03
2017-09-21T15:59:59.393Z,20.00
2017-09-21T16:02:26.267Z,21.73
2017-09-21T16:04:53.452Z,24.10
2017-09-21T16:07:20.305Z,23.33
2017-09-21T16:09:47.132Z,22.90
2017-09-21T16:12:13.992Z,23.00
2017-09-21T16:14:40.849Z,22.80
2017-09-21T16:17:07.732Z,27.97
2017-09-21T16:19:34.591Z,24.40
2017-09-21T16:22:01.753Z,21.63
2017-09-21T16:24:28.900Z,19.67
2017-09-21T16:26:55.726Z,20.10
2017-09-21T16:29:22.552Z,20.70
2017-09-21T16:31:49.368Z,20.63
2017-09-21T16:34:16.477Z,18.70
2017-09-21T16:36:43.528Z,19.20
2017-09-21T16:39:10.332Z,19.93
2017-09-21T16:41:37.183Z,19.00
2017-09-21T16:44:03.979Z,18.00
2017-09-21T16:46:30.787Z,19.93
2017-09-21T16:48:57.611Z,19.00
2017-09-21T16:51:24.413Z,18.13
2017-09-21T16:53:51.524Z,17.43
2017-09-21T16:56:18.704Z,17.17
2017-09-21T16:58:45.510Z,15.83
2017-09-21T17:01:12.320Z,16.60
2017-09-21T17:03:39.181Z,16.27
2017-09-21T17:06:06.208Z,16.13
2017-09-21T17:08:33.042Z,17.10
2017-09-21T17:11:00.149Z,17.53
2017-09-21T17:13:26.971Z,15.67
2017-09-21T17:15:54.035Z,17.03
2017-09-21T17:18:20.891Z,18.63
2017-09-21T17:20:47.693Z,18.90
2017-09-21T17:23:14.504Z,18.00
2017-09-21T17:25:41.614Z,16.00
2017-09-21T17:28:08.665Z,15.30
2017-09-21T17:30:35.460Z,15.87
2017-09-21T17:33:02.292Z,16.87
2017-09-21T17:35:29.402Z,18.27
2017-09-21T17:37:56.195Z,17.93
2017-09-21T17:40:23.293Z,19.10
2017-09-21T17:42:50.126Z,19.07
2017-09-21T17:45:17.179Z,19.00
2017-09-21T17:47:44.029Z,18.53
2017-09-21T17:50:10.840Z,17.23
2017-09-21T17:52:37.672Z,17.17
2017-09-21T17:55:04.752Z,17.10
2017-09-21T17:57:31.588Z,18.43
2017-09-21T17:59:58.383Z,16.00
2017-09-21T18:02:25.240Z,17.80
2017-09-21T18:04:52.032Z,15.20
2017-09-21T18:07:19.150Z,17.60
2017-09-21T18:09:46.009Z,18.57
2017-09-21T18:12:12.832Z,18.37
2017-09-21T18:14:39.667Z,20.33
2017-09-21T18:17:06.752Z,23.50
2017-09-21T18:19:33.623Z,19.37
2017-09-21T18:22:00.497Z,18.47
2017-09-21T18:24:27.588Z,17.30
2017-09-21T18:26:55.273Z,18.10
2017-09-21T18:29:22.103Z,16.10
2017-09-21T18:31:48.949Z,17.63
2017-09-21T18:34:15.752Z,20.90
2017-09-21T18:36:42.780Z,16.10
2017-09-21T18:39:09.865Z,18.50
2017-09-21T18:41:36.664Z,16.60
2017-09-21T18:44:03.479Z,17.20
2017-09-21T18:46:30.300Z,21.33
2017-09-21T18:48:57.149Z,23.90
2017-09-21T18:51:24.010Z,24.60
2017-09-21T18:53:50.869Z,21.23
2017-09-21T18:56:18.091Z,19.20
2017-09-21T18:58:44.924Z,19.00
2017-09-21T19:01:12.081Z,18.83
2017-09-21T19:03:38.884Z,17.60
2017-09-21T19:06:05.692Z,18.00
2017-09-21T19:08:32.564Z,17.30
2017-09-21T19:10:59.661Z,16.60
2017-09-21T19:13:26.492Z,17.23
2017-09-21T19:15:53.329Z,17.50
2017-09-21T19:18:20.156Z,19.00
2017-09-21T19:20:46.987Z,24.97
2017-09-21T19:23:13.832Z,20.60
2017-09-21T19:25:40.920Z,20.60
2017-09-21T19:28:07.740Z,20.47
2017-09-21T19:30:34.574Z,21.67
2017-09-21T19:33:01.401Z,20.40
2017-09-21T19:35:28.204Z,19.70
2017-09-21T19:37:55.065Z,21.07
2017-09-21T19:40:22.184Z,21.03
2017-09-21T19:42:49.342Z,23.40
2017-09-21T19:45:16.487Z,24.17
2017-09-21T19:47:43.643Z,23.17
2017-09-21T19:50:10.798Z,24.00
2017-09-21T19:52:37.679Z,22.23
2017-09-21T19:55:04.791Z,22.10
2017-09-21T19:57:31.934Z,24.37
2017-09-21T19:59:58.776Z,21.90
2017-09-21T20:02:25.576Z,24.40
2017-09-21T20:04:52.443Z,21.43
2017-09-21T20:07:19.610Z,22.83
2017-09-21T20:09:46.433Z,24.83
2017-09-21T20:12:13.500Z,26.70
2017-09-21T20:14:40.651Z,24.67
2017-09-21T20:17:07.492Z,23.70
2017-09-21T20:19:34.409Z,24.20
2017-09-21T20:22:01.460Z,20.90
2017-09-21T20:24:28.284Z,25.33
2017-09-21T20:26:55.131Z,22.77
2017-09-21T20:29:21.999Z,23.90
2017-09-21T20:31:48.881Z,23.10
2017-09-21T20:34:15.688Z,26.93
2017-09-21T20:36:42.537Z,23.80
2017-09-21T20:39:09.333Z,22.53
2017-09-21T20:41:36.433Z,20.57
2017-09-21T20:44:03.295Z,24.47
2017-09-21T20:46:30.104Z,23.43
2017-09-21T20:48:57.172Z,25.10
2017-09-21T20:51:24.032Z,26.17
2017-09-21T20:53:51.103Z,23.77
2017-09-21T20:56:18.329Z,25.03
2017-09-21T20:58:45.214Z,25.27
2017-09-21T21:01:12.044Z,26.10
2017-09-21T21:03:38.863Z,25.70
2017-09-21T21:06:05.736Z,28.40
2017-09-21T21:08:32.571Z,22.97
2017-09-21T21:10:59.385Z,29.40
2017-09-21T21:13:26.530Z,37.10
2017-09-21T21:15:53.348Z,29.80
2017-09-21T21:18:20.523Z,25.57
2017-09-21T21:20:47.384Z,24.70
2017-09-21T21:23:14.197Z,27.00
2017-09-21T21:25:41.000Z,27.80
2017-09-21T21:28:07.836Z,27.63
2017-09-21T21:30:34.939Z,23.00
2017-09-21T21:33:01.743Z,25.77
2017-09-21T21:35:28.638Z,26.70
2017-09-21T21:37:55.461Z,25.17
2017-09-21T21:40:22.536Z,28.23
2017-09-21T21:42:49.408Z,29.07
2017-09-21T21:45:16.509Z,28.33
2017-09-21T21:47:43.553Z,27.20
2017-09-21T21:50:10.708Z,33.87
2017-09-21T21:52:37.778Z,29.47
2017-09-21T21:55:04.609Z,31.03
2017-09-21T21:57:31.457Z,28.13
2017-09-21T21:59:58.284Z,30.93
2017-09-21T22:02:25.084Z,29.87
2017-09-21T22:04:51.944Z,26.00
2017-09-21T22:07:18.765Z,27.87
2017-09-21T22:09:45.592Z,30.10
2017-09-21T22:12:12.703Z,27.27
2017-09-21T22:14:39.528Z,26.97
2017-09-21T22:17:06.703Z,30.40
2017-09-21T22:19:33.852Z,35.13
2017-09-21T22:22:00.720Z,33.53
2017-09-21T22:24:27.544Z,33.43
2017-09-21T22:26:54.380Z,31.20
2017-09-21T22:29:21.198Z,30.90
2017-09-21T22:31:48.372Z,27.50
2017-09-21T22:34:15.224Z,32.97
2017-09-21T22:36:42.053Z,30.17
2017-09-21T22:39:09.207Z,26.90
2017-09-21T22:41:36.356Z,27.13
2017-09-21T22:44:03.180Z,33.33
2017-09-21T22:46:30.213Z,33.13
2017-09-21T22:48:57.070Z,31.13
2017-09-21T22:51:23.889Z,29.50
2017-09-21T22:53:50.720Z,32.87
2017-09-21T22:56:17.578Z,59.73
2017-09-21T22:58:44.404Z,50.10
2017-09-21T23:01:11.525Z,36.80
2017-09-21T23:03:38.392Z,38.30
2017-09-21T23:06:05.185Z,42.90
2017-09-21T23:08:32.011Z,37.27
2017-09-21T23:10:58.857Z,40.27
2017-09-21T23:13:25.659Z,39.50
2017-09-21T23:15:52.467Z,40.57
2017-09-21T23:18:19.623Z,64.20
2017-09-21T23:20:46.461Z,57.50
2017-09-21T23:23:13.260Z,51.43
2017-09-21T23:25:40.347Z,46.20
2017-09-21T23:28:07.160Z,43.97
2017-09-21T23:30:33.955Z,49.10
2017-09-21T23:33:00.847Z,46.60
2017-09-21T23:35:27.676Z,59.10
2017-09-21T23:37:54.476Z,46.47
2017-09-21T23:40:21.311Z,63.30
2017-09-21T23:42:48.457Z,70.93
2017-09-21T23:45:15.268Z,63.77
2017-09-21T23:47:42.153Z,83.43
2017-09-21T23:50:09.301Z,91.23
2017-09-21T23:52:36.448Z,81.37
2017-09-21T23:55:03.280Z,82.77
2017-09-21T23:57:30.440Z,74.40
2017-09-21T23:59:57.267Z,50.50
